Time;durP1;ratioP1;P1;durP2;ratioP2;P2;SDS_P1;SDS_P2;PMS_P1;PMS_P2;Temp;Humidity;BMP_temperature;BMP_pressure;BME280_temperature;BME280_humidity;BME280_pressure;Samples;Min_cycle;Max_cycle;Signal;HPM_P1;HPM_P2
2022/02/21 00:00:22;;;;;;;5.57;1.85;;;;;;;;;;4972770;28;20025;-63
2022/02/21 00:02:49;;;;;;;3.88;1.55;;;;;;;;;;4972259;28;20052;-63
2022/02/21 00:05:15;;;;;;;4.95;2.00;;;;;;;;;;4972263;28;20542;-64
2022/02/21 00:07:41;;;;;;;11.00;1.75;;;;;;;;;;4972919;28;20076;-64
2022/02/21 00:10:08;;;;;;;3.65;1.67;;;;;;;;;;4971640;28;20425;-65
2022/02/21 00:12:34;;;;;;;4.45;1.77;;;;;;;;;;4972381;28;20424;-63
2022/02/21 00:14:59;;;;;;;5.50;1.75;;;;;;;;;;4971653;28;20026;-62
2022/02/21 00:17:25;;;;;;;4.80;2.25;;;;;;;;;;4971981;28;20106;-65
2022/02/21 00:19:50;;;;;;;6.38;2.17;;;;;;;;;;4972127;28;20044;-63
2022/02/21 00:22:15;;;;;;;3.20;1.70;;;;;;;;;;4971753;28;20411;-63
2022/02/21 00:24:41;;;;;;;5.03;1.65;;;;;;;;;;4971458;28;20481;-63
2022/02/21 00:27:06;;;;;;;5.95;2.15;;;;;;;;;;4971619;28;20436;-63
2022/02/21 00:29:31;;;;;;;6.35;2.15;;;;;;;;;;4971006;28;20025;-63
2022/02/21 00:31:57;;;;;;;2.63;1.30;;;;;;;;;;4971517;28;20413;-63
2022/02/21 00:34:22;;;;;;;3.67;1.73;;;;;;;;;;4971733;28;20061;-63
2022/02/21 00:36:47;;;;;;;3.83;1.30;;;;;;;;;;4971555;28;20086;-63
2022/02/21 00:39:13;;;;;;;4.78;1.77;;;;;;;;;;4973058;28;20393;-64
2022/02/21 00:41:38;;;;;;;4.32;1.30;;;;;;;;;;4971487;28;20452;-63
2022/02/21 00:44:04;;;;;;;4.25;1.88;;;;;;;;;;4971678;28;20474;-63
2022/02/21 00:46:29;;;;;;;2.88;1.42;;;;;;;;;;4971603;28;20417;-63
2022/02/21 00:48:54;;;;;;;5.18;1.88;;;;;;;;;;4971574;28;20029;-63
2022/02/21 00:51:19;;;;;;;1.65;1.00;;;;;;;;;;4971128;28;20453;-64
2022/02/21 00:53:45;;;;;;;2.72;1.40;;;;;;;;;;4971516;28;20578;-63
2022/02/21 00:56:10;;;;;;;2.60;1.00;;;;;;;;;;4971444;28;20419;-63
2022/02/21 00:58:35;;;;;;;4.13;1.40;;;;;;;;;;4971491;28;20429;-64
2022/02/21 01:01:01;;;;;;;4.10;1.63;;;;;;;;;;4965916;28;20384;-63
2022/02/21 01:03:26;;;;;;;1.88;1.20;;;;;;;;;;4958473;28;20508;-63
2022/02/21 01:05:51;;;;;;;2.95;1.33;;;;;;;;;;4950926;28;20441;-63
2022/02/21 01:08:17;;;;;;;2.42;1.17;;;;;;;;;;4953478;28;20044;-63
2022/02/21 01:10:42;;;;;;;2.67;1.30;;;;;;;;;;4950969;28;20376;-63
2022/02/21 01:13:07;;;;;;;4.63;1.48;;;;;;;;;;4952251;28;20045;-63
2022/02/21 01:15:33;;;;;;;2.95;1.00;;;;;;;;;;4951223;28;20318;-63
2022/02/21 01:17:58;;;;;;;4.80;1.20;;;;;;;;;;4951705;28;20030;-63
2022/02/21 01:20:23;;;;;;;1.42;0.73;;;;;;;;;;4952100;28;20512;-63
2022/02/21 01:22:49;;;;;;;5.00;1.30;;;;;;;;;;4953256;28;20076;-64
2022/02/21 01:25:14;;;;;;;2.53;1.25;;;;;;;;;;4951679;28;20365;-63
2022/02/21 01:27:39;;;;;;;1.88;1.38;;;;;;;;;;4951099;28;20352;-64
2022/02/21 01:30:06;;;;;;;3.25;1.63;;;;;;;;;;4950763;28;20034;-63
2022/02/21 01:32:32;;;;;;;3.83;1.15;;;;;;;;;;4952380;28;20433;-64
2022/02/21 01:34:57;;;;;;;2.75;1.40;;;;;;;;;;4950699;28;20376;-63
2022/02/21 01:37:23;;;;;;;4.97;1.35;;;;;;;;;;4951215;28;20357;-63
2022/02/21 01:39:48;;;;;;;4.13;1.20;;;;;;;;;;4950856;28;20372;-63
2022/02/21 01:42:13;;;;;;;3.38;1.02;;;;;;;;;;4951319;28;20034;-63
2022/02/21 01:44:41;;;;;;;2.08;0.93;;;;;;;;;;4950612;28;20397;-64
2022/02/21 01:47:08;;;;;;;1.88;0.88;;;;;;;;;;4951367;28;20368;-63
2022/02/21 01:49:34;;;;;;;2.08;1.20;;;;;;;;;;4951803;28;20057;-63
2022/02/21 01:52:00;;;;;;;3.03;1.15;;;;;;;;;;4951042;28;20437;-63
2022/02/21 01:54:25;;;;;;;3.20;0.93;;;;;;;;;;4950730;28;20484;-64
2022/02/21 01:56:51;;;;;;;3.50;1.17;;;;;;;;;;4950968;28;20116;-63
2022/02/21 01:59:16;;;;;;;4.45;1.23;;;;;;;;;;4950571;28;20395;-63
2022/02/21 02:01:41;;;;;;;3.33;1.65;;;;;;;;;;4950993;28;20053;-63
2022/02/21 02:04:07;;;;;;;4.07;1.48;;;;;;;;;;4952419;28;20447;-63
2022/02/21 02:06:33;;;;;;;2.42;0.85;;;;;;;;;;4948711;28;20380;-64
2022/02/21 02:08:58;;;;;;;1.65;0.95;;;;;;;;;;4949742;28;20353;-63
2022/02/21 02:11:25;;;;;;;3.90;1.20;;;;;;;;;;4950471;28;20430;-63
2022/02/21 02:13:51;;;;;;;1.65;0.90;;;;;;;;;;4950095;28;20352;-64
2022/02/21 02:16:17;;;;;;;3.38;0.80;;;;;;;;;;4950614;28;20352;-63
2022/02/21 02:18:43;;;;;;;3.20;1.00;;;;;;;;;;4950145;28;20433;-63
2022/02/21 02:21:09;;;;;;;1.77;0.95;;;;;;;;;;4950412;28;20376;-63
2022/02/21 02:23:34;;;;;;;3.42;1.10;;;;;;;;;;4950814;28;20391;-63
2022/02/21 02:25:59;;;;;;;2.15;1.10;;;;;;;;;;4950887;28;20038;-63
2022/02/21 02:28:25;;;;;;;1.40;0.77;;;;;;;;;;4950713;28;20356;-63
2022/02/21 02:30:51;;;;;;;2.05;0.85;;;;;;;;;;4951606;28;20398;-63
2022/02/21 02:33:16;;;;;;;1.17;0.70;;;;;;;;;;4950545;28;20340;-64
2022/02/21 02:35:41;;;;;;;3.25;1.00;;;;;;;;;;4950869;28;20324;-63
2022/02/21 02:38:07;;;;;;;3.20;0.77;;;;;;;;;;4950118;28;20456;-64
2022/02/21 02:40:34;;;;;;;1.98;1.00;;;;;;;;;;4949748;28;20334;-63
2022/02/21 02:43:01;;;;;;;1.63;0.80;;;;;;;;;;4951759;28;20419;-63
2022/02/21 02:45:27;;;;;;;2.67;1.10;;;;;;;;;;4949545;28;20433;-63
2022/02/21 02:47:53;;;;;;;1.27;0.60;;;;;;;;;;4950038;28;20347;-63
2022/02/21 02:50:18;;;;;;;4.53;0.85;;;;;;;;;;4949806;28;20348;-63
2022/02/21 02:52:43;;;;;;;1.52;0.68;;;;;;;;;;4949744;28;20132;-63
2022/02/21 02:55:09;;;;;;;1.45;0.65;;;;;;;;;;4950833;28;20316;-63
2022/02/21 02:57:34;;;;;;;1.42;0.90;;;;;;;;;;4949912;28;20030;-63
2022/02/21 03:00:00;;;;;;;0.50;0.50;;;;;;;;;;4949501;28;20367;-65
2022/02/21 03:02:25;;;;;;;0.98;0.73;;;;;;;;;;4950080;28;20480;-63
2022/02/21 03:04:50;;;;;;;1.23;0.80;;;;;;;;;;4949361;28;20429;-64
2022/02/21 03:07:16;;;;;;;1.48;0.80;;;;;;;;;;4948937;28;20452;-63
2022/02/21 03:09:41;;;;;;;2.08;0.90;;;;;;;;;;4949962;28;20053;-63
2022/02/21 03:12:07;;;;;;;3.47;1.10;;;;;;;;;;4949326;28;20396;-63
2022/02/21 03:14:32;;;;;;;0.70;0.60;;;;;;;;;;4949894;28;20422;-62
2022/02/21 03:16:57;;;;;;;1.02;0.60;;;;;;;;;;4949447;28;20029;-63
2022/02/21 03:19:26;;;;;;;2.00;0.73;;;;;;;;;;4950255;28;20416;-63
2022/02/21 03:21:56;;;;;;;0.93;0.63;;;;;;;;;;4950269;28;20519;-62
2022/02/21 03:24:22;;;;;;;2.30;1.00;;;;;;;;;;4949416;28;20034;-63
2022/02/21 03:26:47;;;;;;;2.85;0.90;;;;;;;;;;4949356;28;20525;-63
2022/02/21 03:29:13;;;;;;;2.83;0.52;;;;;;;;;;4950652;28;20030;-63
2022/02/21 03:31:38;;;;;;;1.30;0.88;;;;;;;;;;4949654;28;20508;-63
2022/02/21 03:34:03;;;;;;;1.02;0.60;;;;;;;;;;4949419;28;20042;-62
2022/02/21 03:36:29;;;;;;;3.38;0.80;;;;;;;;;;4949452;28;20341;-63
2022/02/21 03:38:54;;;;;;;1.63;0.80;;;;;;;;;;4950458;28;20129;-62
2022/02/21 03:41:21;;;;;;;2.15;0.90;;;;;;;;;;4949258;28;20352;-63
2022/02/21 03:43:46;;;;;;;1.02;0.55;;;;;;;;;;4949726;28;20661;-62
2022/02/21 03:46:12;;;;;;;0.75;0.52;;;;;;;;;;4949475;28;20448;-63
2022/02/21 03:48:37;;;;;;;1.30;0.98;;;;;;;;;;4950181;28;20460;-63
2022/02/21 03:51:02;;;;;;;0.70;0.65;;;;;;;;;;4948965;28;20509;-63
2022/02/21 03:53:28;;;;;;;0.60;0.50;;;;;;;;;;4949358;28;20065;-63
2022/02/21 03:55:55;;;;;;;1.25;0.60;;;;;;;;;;4950786;28;20310;-62
2022/02/21 03:58:20;;;;;;;3.72;1.00;;;;;;;;;;4949137;28;20057;-62
2022/02/21 04:00:46;;;;;;;2.42;0.88;;;;;;;;;;4949463;28;20025;-63
2022/02/21 04:03:11;;;;;;;1.55;0.70;;;;;;;;;;4948020;28;20026;-62
2022/02/21 04:05:36;;;;;;;0.68;0.50;;;;;;;;;;4949349;28;20516;-63
2022/02/21 04:08:02;;;;;;;1.73;0.52;;;;;;;;;;4951610;28;20447;-63
2022/02/21 04:10:27;;;;;;;1.83;0.77;;;;;;;;;;4952414;28;20388;-62
2022/02/21 04:12:52;;;;;;;0.85;0.60;;;;;;;;;;4952439;28;20416;-62
2022/02/21 04:15:18;;;;;;;2.28;1.08;;;;;;;;;;4952497;28;20437;-62
2022/02/21 04:17:45;;;;;;;0.88;0.77;;;;;;;;;;4953418;28;20436;-63
2022/02/21 04:20:12;;;;;;;4.75;1.00;;;;;;;;;;4952446;28;20468;-63
2022/02/21 04:22:38;;;;;;;0.95;0.60;;;;;;;;;;4952276;28;20108;-62
2022/02/21 04:25:06;;;;;;;1.08;0.77;;;;;;;;;;4953645;28;20052;-62
2022/02/21 04:27:42;;;;;;;1.55;0.82;;;;;;;;;;4952389;28;20433;-62
2022/02/21 04:30:07;;;;;;;1.42;0.70;;;;;;;;;;4952629;28;20522;-63
2022/02/21 04:32:35;;;;;;;0.77;0.60;;;;;;;;;;4952669;28;20368;-62
2022/02/21 04:35:00;;;;;;;2.92;1.10;;;;;;;;;;4952331;28;20025;-63
2022/02/21 04:37:26;;;;;;;1.52;0.75;;;;;;;;;;4952996;28;20443;-62
2022/02/21 04:39:51;;;;;;;2.38;1.25;;;;;;;;;;4952359;28;20472;-62
2022/02/21 04:42:16;;;;;;;1.55;0.80;;;;;;;;;;4951885;28;20440;-62
2022/02/21 04:44:42;;;;;;;3.90;1.13;;;;;;;;;;4952584;28;20425;-62
2022/02/21 04:47:07;;;;;;;2.45;1.20;;;;;;;;;;4952064;28;20373;-62
2022/02/21 04:49:32;;;;;;;3.90;1.98;;;;;;;;;;4952290;28;20426;-62
2022/02/21 04:51:58;;;;;;;2.95;1.33;;;;;;;;;;4951877;28;20112;-61
2022/02/21 04:54:23;;;;;;;2.13;1.23;;;;;;;;;;4951559;28;20034;-62
2022/02/21 04:56:49;;;;;;;3.63;1.17;;;;;;;;;;4951634;28;20331;-62
2022/02/21 04:59:14;;;;;;;3.53;1.13;;;;;;;;;;4950378;28;20433;-62
2022/02/21 05:01:39;;;;;;;3.97;1.58;;;;;;;;;;4951704;28;20325;-62
2022/02/21 05:04:05;;;;;;;2.65;0.90;;;;;;;;;;4952667;28;20401;-62
2022/02/21 05:06:31;;;;;;;3.13;1.55;;;;;;;;;;4952184;28;20449;-61
2022/02/21 05:08:58;;;;;;;1.58;0.95;;;;;;;;;;4951598;28;20029;-63
2022/02/21 05:11:23;;;;;;;2.72;1.30;;;;;;;;;;4951923;28;20421;-62
2022/02/21 05:13:48;;;;;;;2.08;0.90;;;;;;;;;;4951705;28;20468;-63
2022/02/21 05:16:14;;;;;;;3.60;1.05;;;;;;;;;;4951865;28;20586;-62
2022/02/21 05:18:40;;;;;;;3.20;1.40;;;;;;;;;;4950620;28;20342;-62
2022/02/21 05:21:05;;;;;;;1.40;0.80;;;;;;;;;;4951429;28;20163;-62
2022/02/21 05:23:30;;;;;;;1.75;0.88;;;;;;;;;;4950971;28;20049;-62
2022/02/21 05:25:56;;;;;;;1.67;0.90;;;;;;;;;;4951323;28;20774;-62
2022/02/21 05:28:21;;;;;;;2.17;1.25;;;;;;;;;;4951118;28;20429;-61
2022/02/21 05:30:46;;;;;;;1.42;1.00;;;;;;;;;;4951176;28;20392;-62
2022/02/21 05:33:13;;;;;;;2.70;1.02;;;;;;;;;;4951553;28;20551;-61
2022/02/21 05:35:38;;;;;;;6.40;1.30;;;;;;;;;;4951367;28;20448;-63
2022/02/21 05:38:04;;;;;;;2.67;1.17;;;;;;;;;;4951213;28;20457;-62
2022/02/21 05:40:29;;;;;;;1.88;1.08;;;;;;;;;;4951505;28;20093;-63
2022/02/21 05:42:54;;;;;;;4.60;1.20;;;;;;;;;;4951542;28;20515;-61
2022/02/21 05:45:20;;;;;;;3.22;1.30;;;;;;;;;;4951020;28;20429;-61
2022/02/21 05:47:45;;;;;;;1.85;0.85;;;;;;;;;;4951239;28;20424;-63
2022/02/21 05:50:10;;;;;;;5.72;1.17;;;;;;;;;;4951894;28;20368;-62
2022/02/21 05:52:36;;;;;;;3.45;1.25;;;;;;;;;;4951995;28;20092;-63
2022/02/21 05:55:01;;;;;;;0.65;0.60;;;;;;;;;;4950814;28;20416;-62
2022/02/21 05:57:29;;;;;;;3.28;1.38;;;;;;;;;;4950660;28;20463;-62
2022/02/21 05:59:56;;;;;;;1.40;0.88;;;;;;;;;;4950351;28;20091;-62
2022/02/21 06:02:22;;;;;;;2.75;1.20;;;;;;;;;;4950446;28;20341;-62
2022/02/21 06:04:47;;;;;;;4.18;1.30;;;;;;;;;;4951738;28;20057;-62
2022/02/21 06:07:14;;;;;;;2.65;0.98;;;;;;;;;;4950260;28;20453;-62
2022/02/21 06:09:40;;;;;;;3.15;1.00;;;;;;;;;;4950174;28;20072;-61
2022/02/21 06:12:06;;;;;;;3.03;1.20;;;;;;;;;;4949250;28;20499;-63
2022/02/21 06:14:32;;;;;;;5.03;1.27;;;;;;;;;;4950078;28;20040;-62
2022/02/21 06:16:57;;;;;;;2.58;1.42;;;;;;;;;;4950983;28;20379;-62
2022/02/21 06:19:23;;;;;;;2.28;1.17;;;;;;;;;;4950954;28;20353;-62
2022/02/21 06:21:48;;;;;;;2.58;1.00;;;;;;;;;;4952038;28;20428;-62
2022/02/21 06:24:13;;;;;;;2.97;1.20;;;;;;;;;;4950302;28;20030;-63
2022/02/21 06:26:39;;;;;;;2.38;1.02;;;;;;;;;;4950365;28;20574;-61
2022/02/21 06:29:04;;;;;;;2.80;1.30;;;;;;;;;;4951044;28;20423;-62
2022/02/21 06:31:31;;;;;;;3.05;1.40;;;;;;;;;;4950899;28;20413;-61
2022/02/21 06:33:56;;;;;;;1.52;0.80;;;;;;;;;;4950066;28;20516;-63
2022/02/21 06:36:21;;;;;;;1.38;0.90;;;;;;;;;;4950289;28;20357;-62
2022/02/21 06:38:47;;;;;;;2.20;1.00;;;;;;;;;;4950378;28;20439;-62
2022/02/21 06:41:14;;;;;;;1.70;0.95;;;;;;;;;;4949930;28;20341;-61
2022/02/21 06:43:40;;;;;;;2.17;1.15;;;;;;;;;;4950181;28;20510;-62
2022/02/21 06:46:06;;;;;;;5.78;1.13;;;;;;;;;;4950510;28;20317;-62
2022/02/21 06:48:31;;;;;;;1.83;0.98;;;;;;;;;;4950003;28;20473;-62
2022/02/21 06:50:57;;;;;;;1.67;1.05;;;;;;;;;;4951792;28;20477;-62
2022/02/21 06:53:22;;;;;;;2.30;1.10;;;;;;;;;;4950326;28;20286;-62
2022/02/21 06:55:48;;;;;;;3.28;1.00;;;;;;;;;;4949997;28;20344;-62
2022/02/21 06:58:13;;;;;;;2.42;1.27;;;;;;;;;;4950815;28;20556;-62
2022/02/21 07:00:39;;;;;;;3.38;1.13;;;;;;;;;;4949483;28;20101;-61
2022/02/21 07:03:04;;;;;;;4.22;1.00;;;;;;;;;;4950076;28;20459;-62
2022/02/21 07:05:29;;;;;;;1.98;1.20;;;;;;;;;;4950082;28;20429;-62
2022/02/21 07:07:55;;;;;;;1.60;0.80;;;;;;;;;;4950335;28;20334;-62
2022/02/21 07:10:20;;;;;;;1.67;1.02;;;;;;;;;;4948221;28;20388;-63
2022/02/21 07:12:45;;;;;;;1.60;0.95;;;;;;;;;;4949663;28;20448;-62
2022/02/21 07:15:11;;;;;;;1.45;0.90;;;;;;;;;;4949655;28;20449;-61
2022/02/21 07:17:40;;;;;;;2.05;1.30;;;;;;;;;;4949605;28;20524;-62
2022/02/21 07:20:07;;;;;;;4.72;1.63;;;;;;;;;;4949484;28;20424;-63
2022/02/21 07:22:32;;;;;;;1.30;1.00;;;;;;;;;;4951051;28;20301;-62
2022/02/21 07:24:58;;;;;;;4.07;1.40;;;;;;;;;;4949891;28;20340;-63
2022/02/21 07:27:23;;;;;;;2.45;1.08;;;;;;;;;;4949766;28;20476;-62
2022/02/21 07:29:48;;;;;;;2.50;1.15;;;;;;;;;;4949801;28;20429;-62
2022/02/21 07:32:13;;;;;;;2.80;1.10;;;;;;;;;;4949510;28;20432;-62
2022/02/21 07:34:39;;;;;;;3.95;1.25;;;;;;;;;;4948858;28;20472;-62
2022/02/21 07:37:06;;;;;;;2.42;0.90;;;;;;;;;;4950062;28;20508;-62
2022/02/21 07:39:33;;;;;;;1.38;0.85;;;;;;;;;;4949387;28;20054;-62
2022/02/21 07:41:58;;;;;;;2.13;1.30;;;;;;;;;;4950350;28;20463;-62
2022/02/21 07:44:23;;;;;;;2.38;1.17;;;;;;;;;;4953224;28;20485;-62
2022/02/21 07:46:49;;;;;;;2.30;0.95;;;;;;;;;;4953833;28;20022;-61
2022/02/21 07:49:15;;;;;;;1.85;0.75;;;;;;;;;;4953288;28;20448;-62
2022/02/21 07:51:40;;;;;;;3.67;1.33;;;;;;;;;;4952739;28;20104;-61
2022/02/21 07:54:06;;;;;;;3.40;1.25;;;;;;;;;;4953412;28;20412;-62
2022/02/21 07:56:32;;;;;;;2.50;1.38;;;;;;;;;;4952863;28;20456;-62
2022/02/21 07:58:57;;;;;;;2.33;1.17;;;;;;;;;;4953623;28;20410;-64
2022/02/21 08:01:22;;;;;;;4.07;1.17;;;;;;;;;;4953058;28;20385;-62
2022/02/21 08:03:48;;;;;;;4.63;1.20;;;;;;;;;;4954941;28;20034;-61
2022/02/21 08:06:13;;;;;;;1.90;1.00;;;;;;;;;;4952285;28;20413;-62
2022/02/21 08:08:39;;;;;;;2.42;1.00;;;;;;;;;;4953368;28;20026;-62
2022/02/21 08:11:04;;;;;;;2.65;1.38;;;;;;;;;;4952684;28;20400;-62
2022/02/21 08:13:30;;;;;;;1.38;1.02;;;;;;;;;;4953687;28;20352;-62
2022/02/21 08:15:55;;;;;;;2.13;1.20;;;;;;;;;;4952513;28;20472;-62
2022/02/21 08:18:21;;;;;;;2.05;1.10;;;;;;;;;;4952410;28;20449;-62
2022/02/21 08:20:46;;;;;;;4.60;1.45;;;;;;;;;;4952389;28;20533;-62
2022/02/21 08:23:11;;;;;;;1.98;1.08;;;;;;;;;;4952519;28;20498;-61
2022/02/21 08:25:36;;;;;;;2.67;1.65;;;;;;;;;;4952318;28;20452;-61
2022/02/21 08:28:02;;;;;;;3.72;1.58;;;;;;;;;;4953180;28;20478;-62
2022/02/21 08:30:27;;;;;;;2.20;1.30;;;;;;;;;;4952220;28;20372;-62
2022/02/21 08:32:53;;;;;;;2.45;1.67;;;;;;;;;;4952329;28;20511;-61
2022/02/21 08:35:19;;;;;;;4.35;1.40;;;;;;;;;;4952434;28;20037;-63
2022/02/21 08:37:45;;;;;;;2.83;1.08;;;;;;;;;;4952284;28;20317;-62
2022/02/21 08:40:16;;;;;;;2.85;1.63;;;;;;;;;;4952307;28;20356;-61
2022/02/21 08:42:42;;;;;;;2.50;1.05;;;;;;;;;;4952567;28;20339;-62
2022/02/21 08:45:08;;;;;;;2.75;1.20;;;;;;;;;;4951973;28;20373;-62
2022/02/21 08:47:34;;;;;;;3.67;1.27;;;;;;;;;;4952811;28;20356;-62
2022/02/21 08:49:59;;;;;;;3.83;1.70;;;;;;;;;;4951830;28;20356;-62
2022/02/21 08:52:25;;;;;;;3.17;1.52;;;;;;;;;;4951669;28;20030;-62
2022/02/21 08:54:50;;;;;;;3.88;2.17;;;;;;;;;;4952284;28;20483;-62
2022/02/21 08:57:18;;;;;;;3.42;1.88;;;;;;;;;;4951763;28;20524;-61
2022/02/21 08:59:44;;;;;;;3.70;1.30;;;;;;;;;;4951906;28;20449;-63
2022/02/21 09:02:11;;;;;;;2.55;1.30;;;;;;;;;;4952705;28;20337;-61
2022/02/21 09:04:36;;;;;;;3.05;1.52;;;;;;;;;;4952638;28;20479;-61
2022/02/21 09:07:02;;;;;;;4.82;1.83;;;;;;;;;;4952081;28;20516;-62
2022/02/21 09:09:27;;;;;;;4.07;2.45;;;;;;;;;;4951961;28;20091;-61
2022/02/21 09:11:52;;;;;;;2.60;1.67;;;;;;;;;;4951779;28;20441;-62
2022/02/21 09:14:18;;;;;;;5.22;1.77;;;;;;;;;;4951718;28;20045;-62
2022/02/21 09:16:44;;;;;;;4.80;1.83;;;;;;;;;;4951224;28;20353;-61
2022/02/21 09:19:09;;;;;;;5.07;2.45;;;;;;;;;;4951882;28;20445;-64
2022/02/21 09:21:35;;;;;;;5.65;2.63;;;;;;;;;;4951485;28;20432;-61
2022/02/21 09:24:00;;;;;;;5.82;2.75;;;;;;;;;;4951400;28;20030;-63
2022/02/21 09:26:27;;;;;;;3.45;1.75;;;;;;;;;;4951542;28;20042;-62
2022/02/21 09:28:53;;;;;;;6.20;2.63;;;;;;;;;;4951158;28;20030;-62
2022/02/21 09:31:18;;;;;;;8.50;2.65;;;;;;;;;;4951681;28;20034;-62
2022/02/21 09:33:44;;;;;;;7.20;2.75;;;;;;;;;;4951033;28;20412;-61
2022/02/21 09:36:09;;;;;;;4.15;2.47;;;;;;;;;;4951010;28;20417;-62
2022/02/21 09:38:34;;;;;;;4.15;2.35;;;;;;;;;;4951266;28;20397;-63
2022/02/21 09:41:02;;;;;;;4.72;2.58;;;;;;;;;;4951620;28;20517;-61
2022/02/21 09:43:28;;;;;;;5.45;2.65;;;;;;;;;;4950740;28;20318;-62
2022/02/21 09:46:11;;;;;;;4.45;2.20;;;;;;;;;;4953396;28;20329;-64
2022/02/21 09:48:39;;;;;;;4.60;2.60;;;;;;;;;;4951612;28;20048;-61
2022/02/21 09:51:06;;;;;;;5.85;2.40;;;;;;;;;;4950965;28;20096;-62
2022/02/21 09:53:33;;;;;;;5.07;2.45;;;;;;;;;;4950551;28;20030;-62
2022/02/21 09:55:59;;;;;;;4.07;2.03;;;;;;;;;;4950315;28;20326;-62
2022/02/21 09:58:25;;;;;;;4.38;2.10;;;;;;;;;;4951119;28;20341;-62
2022/02/21 10:00:52;;;;;;;3.72;2.03;;;;;;;;;;4951155;28;20451;-62
2022/02/21 10:03:41;;;;;;;4.47;2.10;;;;;;;;;;4951277;28;20340;-62
2022/02/21 10:06:17;;;;;;;3.08;1.77;;;;;;;;;;4949557;28;20536;-62
2022/02/21 10:09:08;;;;;;;5.20;2.28;;;;;;;;;;4950861;28;20448;-62
2022/02/21 10:11:44;;;;;;;3.20;1.90;;;;;;;;;;4950555;28;20460;-63
2022/02/21 10:14:21;;;;;;;3.90;2.10;;;;;;;;;;4950251;28;20116;-62
2022/02/21 10:16:52;;;;;;;3.85;1.83;;;;;;;;;;4950610;28;20393;-62
2022/02/21 10:19:23;;;;;;;4.40;2.20;;;;;;;;;;4950343;28;20457;-63
2022/02/21 10:22:10;;;;;;;3.13;1.95;;;;;;;;;;4951648;28;20525;-62
2022/02/21 10:24:41;;;;;;;5.47;2.30;;;;;;;;;;4950396;28;20176;-62
2022/02/21 10:27:14;;;;;;;3.50;2.15;;;;;;;;;;4950465;28;20344;-62
2022/02/21 10:30:00;;;;;;;2.95;1.90;;;;;;;;;;4950620;28;20368;-62
2022/02/21 10:32:31;;;;;;;3.78;1.60;;;;;;;;;;4950341;28;20088;-62
2022/02/21 10:35:11;;;;;;;3.45;1.95;;;;;;;;;;4950437;28;20572;-62
2022/02/21 10:37:45;;;;;;;4.10;1.80;;;;;;;;;;4950004;28;20441;-62
2022/02/21 10:40:14;;;;;;;2.50;1.70;;;;;;;;;;4950106;28;20337;-62
2022/02/21 10:42:40;;;;;;;3.15;1.60;;;;;;;;;;4949920;28;20479;-63
2022/02/21 10:45:32;;;;;;;4.75;2.15;;;;;;;;;;4950296;28;20432;-61
2022/02/21 10:48:01;;;;;;;3.55;1.92;;;;;;;;;;4947773;28;20046;-62
2022/02/21 10:50:30;;;;;;;2.88;1.58;;;;;;;;;;4950144;28;20404;-61
2022/02/21 10:52:56;;;;;;;5.13;1.73;;;;;;;;;;4949967;28;20026;-63
2022/02/21 10:55:31;;;;;;;3.85;1.75;;;;;;;;;;4949553;28;20026;-62
2022/02/21 10:57:56;;;;;;;5.13;2.05;;;;;;;;;;4951212;28;20361;-62
2022/02/21 11:00:21;;;;;;;4.82;2.30;;;;;;;;;;4950652;28;20423;-62
2022/02/21 11:02:47;;;;;;;4.05;2.60;;;;;;;;;;4949825;28;20056;-62
2022/02/21 11:05:12;;;;;;;4.50;2.33;;;;;;;;;;4951517;28;20097;-63
2022/02/21 11:07:41;;;;;;;7.57;3.05;;;;;;;;;;4949217;28;20507;-62
2022/02/21 11:10:07;;;;;;;4.70;2.43;;;;;;;;;;4949885;28;20395;-61
2022/02/21 11:12:37;;;;;;;4.07;2.38;;;;;;;;;;4949624;28;20588;-61
2022/02/21 11:15:03;;;;;;;6.28;3.58;;;;;;;;;;4949728;28;20441;-62
2022/02/21 11:17:29;;;;;;;7.18;3.67;;;;;;;;;;4952728;28;20433;-61
2022/02/21 11:19:55;;;;;;;5.95;3.42;;;;;;;;;;4953691;28;20437;-61
2022/02/21 11:22:21;;;;;;;5.90;3.10;;;;;;;;;;4953607;28;20339;-62
2022/02/21 11:24:51;;;;;;;7.82;3.88;;;;;;;;;;4954074;28;20436;-61
2022/02/21 11:27:25;;;;;;;10.57;4.18;;;;;;;;;;4952237;28;20302;-62
2022/02/21 11:30:08;;;;;;;11.55;3.85;;;;;;;;;;4944782;28;20503;-62
2022/02/21 11:32:34;;;;;;;6.88;2.95;;;;;;;;;;4972691;28;20532;-61
2022/02/21 11:35:10;;;;;;;10.65;3.67;;;;;;;;;;4974053;28;20429;-62
2022/02/21 11:37:36;;;;;;;5.95;3.25;;;;;;;;;;4972786;28;20452;-62
2022/02/21 11:40:02;;;;;;;9.13;3.63;;;;;;;;;;4972625;28;20095;-62
2022/02/21 11:42:35;;;;;;;7.18;3.85;;;;;;;;;;4973643;28;20439;-63
2022/02/21 11:45:03;;;;;;;9.02;3.78;;;;;;;;;;4972695;28;20484;-62
2022/02/21 11:47:34;;;;;;;7.40;3.13;;;;;;;;;;4972563;28;20421;-61
2022/02/21 11:50:01;;;;;;;7.40;3.03;;;;;;;;;;4972559;28;20084;-62
2022/02/21 11:52:32;;;;;;;10.27;3.17;;;;;;;;;;4972650;28;20103;-62
2022/02/21 11:54:58;;;;;;;6.50;3.13;;;;;;;;;;4972591;28;20582;-62
2022/02/21 11:57:28;;;;;;;5.00;3.15;;;;;;;;;;4972691;28;20413;-62
2022/02/21 11:59:54;;;;;;;6.93;3.70;;;;;;;;;;4971955;28;20425;-62
2022/02/21 12:02:19;;;;;;;6.47;3.03;;;;;;;;;;4973591;28;20365;-63
2022/02/21 12:04:45;;;;;;;6.22;3.03;;;;;;;;;;4972221;28;20333;-62
2022/02/21 12:07:39;;;;;;;5.13;2.78;;;;;;;;;;4971782;28;20449;-63
2022/02/21 12:10:24;;;;;;;4.22;2.20;;;;;;;;;;4973892;28;20344;-61
2022/02/21 12:12:57;;;;;;;6.65;2.67;;;;;;;;;;4971924;28;20040;-61
2022/02/21 12:15:24;;;;;;;7.47;2.80;;;;;;;;;;4971923;28;20456;-62
2022/02/21 12:18:08;;;;;;;7.90;3.42;;;;;;;;;;4971973;28;20475;-62
2022/02/21 12:20:34;;;;;;;5.38;2.70;;;;;;;;;;4973176;28;20421;-63
2022/02/21 12:23:12;;;;;;;4.55;2.05;;;;;;;;;;4972338;28;20432;-62
2022/02/21 12:25:41;;;;;;;3.90;2.33;;;;;;;;;;4972691;28;20529;-61
2022/02/21 12:28:13;;;;;;;4.72;2.00;;;;;;;;;;4971148;28;20387;-63
2022/02/21 12:30:41;;;;;;;4.07;2.17;;;;;;;;;;4972179;28;20503;-62
2022/02/21 12:33:07;;;;;;;8.60;2.63;;;;;;;;;;4971668;28;20140;-61
2022/02/21 12:35:47;;;;;;;6.13;2.40;;;;;;;;;;4970997;28;20034;-63
2022/02/21 12:38:15;;;;;;;5.22;1.88;;;;;;;;;;4971764;28;20096;-63
2022/02/21 12:41:05;;;;;;;5.93;2.38;;;;;;;;;;4971736;28;20328;-61
2022/02/21 12:43:45;;;;;;;6.15;2.50;;;;;;;;;;4971353;28;20425;-62
2022/02/21 12:46:12;;;;;;;5.10;3.03;;;;;;;;;;4971585;28;20326;-62
2022/02/21 12:48:37;;;;;;;5.60;2.70;;;;;;;;;;4971904;28;20433;-63
2022/02/21 12:51:04;;;;;;;3.75;2.28;;;;;;;;;;4971636;28;20479;-62
2022/02/21 12:53:29;;;;;;;7.13;3.15;;;;;;;;;;4971492;28;20463;-64
2022/02/21 12:55:59;;;;;;;6.80;2.10;;;;;;;;;;4971747;28;20489;-62
2022/02/21 12:58:39;;;;;;;5.65;2.28;;;;;;;;;;4972421;28;20500;-62
2022/02/21 13:01:14;;;;;;;7.28;2.70;;;;;;;;;;4971269;28;20317;-63
2022/02/21 13:03:40;;;;;;;5.60;2.25;;;;;;;;;;4971498;28;20381;-62
2022/02/21 13:06:05;;;;;;;6.50;2.30;;;;;;;;;;4970988;28;20033;-61
2022/02/21 13:08:37;;;;;;;5.18;2.53;;;;;;;;;;4972066;28;20345;-63
2022/02/21 13:11:03;;;;;;;7.53;2.38;;;;;;;;;;4971189;28;20451;-62
2022/02/21 13:13:28;;;;;;;7.03;2.90;;;;;;;;;;4971855;28;20345;-62
2022/02/21 13:15:54;;;;;;;7.80;3.15;;;;;;;;;;4970711;28;20437;-63
2022/02/21 13:18:19;;;;;;;4.35;2.13;;;;;;;;;;4971020;28;20430;-63
2022/02/21 13:20:45;;;;;;;8.65;2.65;;;;;;;;;;4971605;28;20420;-62
2022/02/21 13:23:11;;;;;;;5.13;2.42;;;;;;;;;;4970890;28;20491;-62
2022/02/21 13:25:36;;;;;;;4.88;2.03;;;;;;;;;;4970259;28;20459;-62
2022/02/21 13:28:18;;;;;;;6.43;2.15;;;;;;;;;;4970997;28;20053;-62
2022/02/21 13:30:43;;;;;;;7.28;2.70;;;;;;;;;;4970384;28;20429;-62
2022/02/21 13:33:12;;;;;;;7.45;2.10;;;;;;;;;;4971334;28;20376;-62
2022/02/21 13:35:38;;;;;;;7.68;2.40;;;;;;;;;;4970429;28;20469;-62
2022/02/21 13:38:03;;;;;;;6.10;2.80;;;;;;;;;;4968965;28;20421;-62
2022/02/21 13:40:29;;;;;;;6.20;2.75;;;;;;;;;;4970798;28;20366;-61
2022/02/21 13:42:56;;;;;;;6.85;3.05;;;;;;;;;;4971264;28;20399;-62
2022/02/21 13:45:21;;;;;;;5.95;2.53;;;;;;;;;;4970831;28;20404;-62
2022/02/21 13:48:06;;;;;;;4.47;2.30;;;;;;;;;;4970505;28;20111;-62
2022/02/21 13:50:42;;;;;;;4.93;2.30;;;;;;;;;;4970302;28;20397;-62
2022/02/21 13:53:10;;;;;;;6.63;2.50;;;;;;;;;;4970337;28;20372;-62
2022/02/21 13:55:39;;;;;;;7.43;2.37;;;;;;;;;;4970629;28;20345;-62
2022/02/21 13:58:08;;;;;;;7.73;2.23;;;;;;;;;;4970244;28;20457;-63
2022/02/21 14:00:40;;;;;;;5.55;2.03;;;;;;;;;;4970284;28;20376;-62
2022/02/21 14:03:06;;;;;;;9.75;2.42;;;;;;;;;;4970110;28;20329;-62
2022/02/21 14:05:31;;;;;;;5.75;2.03;;;;;;;;;;4970199;28;20318;-62
2022/02/21 14:07:57;;;;;;;6.47;2.45;;;;;;;;;;4970925;28;20427;-62
2022/02/21 14:10:24;;;;;;;5.90;2.20;;;;;;;;;;4970544;28;20115;-63
2022/02/21 14:12:59;;;;;;;7.55;2.15;;;;;;;;;;4970323;28;20470;-62
2022/02/21 14:15:25;;;;;;;4.43;2.17;;;;;;;;;;4969879;28;20376;-62
2022/02/21 14:17:50;;;;;;;7.03;2.22;;;;;;;;;;4970139;28;20367;-62
2022/02/21 14:20:16;;;;;;;6.07;2.33;;;;;;;;;;4969865;28;20510;-63
2022/02/21 14:22:42;;;;;;;5.55;2.08;;;;;;;;;;4969634;28;20128;-62
2022/02/21 14:25:08;;;;;;;4.45;2.13;;;;;;;;;;4969779;28;20384;-63
2022/02/21 14:27:33;;;;;;;4.38;1.90;;;;;;;;;;4969924;28;20068;-62
2022/02/21 14:30:01;;;;;;;4.18;2.03;;;;;;;;;;4969757;28;20444;-62
2022/02/21 14:32:26;;;;;;;4.35;1.95;;;;;;;;;;4970700;28;20345;-62
2022/02/21 14:34:52;;;;;;;3.40;1.88;;;;;;;;;;4971216;28;20306;-62
2022/02/21 14:37:18;;;;;;;3.63;1.85;;;;;;;;;;4969265;28;20522;-62
2022/02/21 14:39:43;;;;;;;4.60;1.80;;;;;;;;;;4969749;28;20539;-63
2022/02/21 14:42:08;;;;;;;2.83;2.15;;;;;;;;;;4969187;28;20100;-62